Time;durP1;ratioP1;P1;durP2;ratioP2;P2;SDS_P1;SDS_P2;PMS_P1;PMS_P2;Temp;Humidity;BMP_temperature;BMP_pressure;BME280_temperature;BME280_humidity;BME280_pressure;Samples;Min_cycle;Max_cycle;Signal;HPM_P1;HPM_P2
2022/03/14 00:01:06;;;;;;;18.52;10.60;;;4.50;61.80;;;;;;5050275;28;20164;-65
2022/03/14 00:03:58;;;;;;;15.15;9.32;;;4.40;61.90;;;;;;5051806;28;20437;-65
2022/03/14 00:06:25;;;;;;;13.48;8.82;;;4.40;62.20;;;;;;5057492;28;20483;-65
2022/03/14 00:08:57;;;;;;;15.02;9.82;;;4.40;62.30;;;;;;5053078;28;20037;-65
2022/03/14 00:11:26;;;;;;;16.73;9.73;;;4.30;62.00;;;;;;5055335;28;20527;-65
2022/03/14 00:13:55;;;;;;;19.05;10.15;;;4.40;62.00;;;;;;5052733;28;20119;-65
2022/03/14 00:16:26;;;;;;;15.83;8.70;;;4.30;61.90;;;;;;5051895;28;20139;-65
2022/03/14 00:18:55;;;;;;;14.70;9.23;;;4.30;62.40;;;;;;5059784;28;20253;-65
2022/03/14 00:21:24;;;;;;;13.63;9.25;;;4.30;62.30;;;;;;5051600;28;20142;-65
2022/03/14 00:23:57;;;;;;;15.80;9.00;;;4.20;62.20;;;;;;5059798;28;20063;-65
2022/03/14 00:26:26;;;;;;;17.67;9.52;;;4.30;62.40;;;;;;5052396;28;20563;-65
2022/03/14 00:28:54;;;;;;;17.20;9.52;;;4.20;62.30;;;;;;5054830;28;20052;-65
2022/03/14 00:31:22;;;;;;;16.15;8.82;;;4.20;62.70;;;;;;5056837;28;20540;-65
2022/03/14 00:33:50;;;;;;;16.08;9.85;;;4.20;62.90;;;;;;5057398;28;20454;-65
2022/03/14 00:36:19;;;;;;;16.70;9.95;;;4.20;62.30;;;;;;5058690;28;20064;-65
2022/03/14 00:38:47;;;;;;;15.93;9.30;;;4.20;62.60;;;;;;5051362;28;20128;-65
2022/03/14 00:41:16;;;;;;;16.33;9.88;;;4.20;62.90;;;;;;5043767;28;20468;-65
2022/03/14 00:43:44;;;;;;;16.27;9.65;;;4.10;63.30;;;;;;5051925;28;20131;-65
2022/03/14 00:46:14;;;;;;;17.00;9.73;;;4.10;63.10;;;;;;5058829;28;20037;-65
2022/03/14 00:48:41;;;;;;;16.98;9.50;;;4.10;63.00;;;;;;5058566;28;20056;-65
2022/03/14 00:51:09;;;;;;;18.77;10.23;;;4.10;63.50;;;;;;5050815;28;20440;-65
2022/03/14 00:53:37;;;;;;;17.60;10.23;;;4.10;63.80;;;;;;5057446;28;20551;-65
2022/03/14 00:56:06;;;;;;;17.90;9.43;;;4.00;63.70;;;;;;5058477;28;20105;-64
2022/03/14 00:58:34;;;;;;;16.60;9.27;;;4.00;63.70;;;;;;5046936;28;20041;-64
2022/03/14 01:01:03;;;;;;;16.67;9.98;;;4.00;63.80;;;;;;5047407;28;20400;-64
2022/03/14 01:03:31;;;;;;;17.92;9.75;;;3.90;63.80;;;;;;5049925;28;20045;-65
2022/03/14 01:05:59;;;;;;;17.83;10.02;;;3.90;64.20;;;;;;5052351;28;20490;-65
2022/03/14 01:08:26;;;;;;;20.50;9.75;;;3.80;64.30;;;;;;5054544;28;20052;-63
2022/03/14 01:10:54;;;;;;;18.00;10.30;;;3.80;64.80;;;;;;5051124;28;20053;-65
2022/03/14 01:13:22;;;;;;;14.63;9.23;;;3.80;64.00;;;;;;5062768;28;20086;-65
2022/03/14 01:15:49;;;;;;;17.40;9.95;;;3.80;64.10;;;;;;5051703;28;20053;-65
2022/03/14 01:18:16;;;;;;;14.93;9.35;;;3.80;64.10;;;;;;5050573;28;20166;-65
2022/03/14 01:20:44;;;;;;;18.55;9.82;;;3.70;64.40;;;;;;5057975;28;20423;-65
2022/03/14 01:23:12;;;;;;;16.20;9.10;;;3.70;64.40;;;;;;5050822;28;20124;-65
2022/03/14 01:25:41;;;;;;;17.27;9.65;;;3.70;64.60;;;;;;5051985;28;20052;-65
2022/03/14 01:28:09;;;;;;;17.50;10.05;;;3.70;64.70;;;;;;5055163;28;20071;-65
2022/03/14 01:30:37;;;;;;;17.48;10.57;;;3.70;64.50;;;;;;5053929;28;20056;-65
2022/03/14 01:33:05;;;;;;;14.65;9.60;;;3.70;64.60;;;;;;5054719;28;20045;-65
2022/03/14 01:35:34;;;;;;;16.15;9.52;;;3.60;64.80;;;;;;5048906;28;20067;-65
2022/03/14 01:38:01;;;;;;;14.57;8.90;;;3.60;65.20;;;;;;5055731;28;20040;-64
2022/03/14 01:40:28;;;;;;;15.23;9.30;;;3.50;65.30;;;;;;5057623;28;20503;-64
2022/03/14 01:42:57;;;;;;;19.40;9.70;;;3.50;65.50;;;;;;5037046;28;20417;-65
2022/03/14 01:45:25;;;;;;;20.60;11.57;;;3.50;65.50;;;;;;5055661;28;20166;-65
2022/03/14 01:47:52;;;;;;;17.33;9.57;;;3.50;65.60;;;;;;5062969;28;20049;-65
2022/03/14 01:50:20;;;;;;;18.88;10.25;;;3.50;65.60;;;;;;5068488;28;20427;-65
2022/03/14 01:52:47;;;;;;;15.23;9.75;;;3.50;65.70;;;;;;5063981;28;20550;-65
2022/03/14 01:55:15;;;;;;;18.48;10.23;;;3.50;65.80;;;;;;5063802;28;20052;-65
2022/03/14 01:57:43;;;;;;;17.48;9.73;;;3.40;65.70;;;;;;5040047;28;20042;-65
2022/03/14 02:00:12;;;;;;;16.90;9.68;;;3.40;65.90;;;;;;5047192;28;20033;-65
2022/03/14 02:02:43;;;;;;;15.98;9.63;;;3.40;66.40;;;;;;5062302;28;20083;-65
2022/03/14 02:05:12;;;;;;;15.35;9.40;;;3.40;66.50;;;;;;5052968;28;20088;-65
2022/03/14 02:07:39;;;;;;;15.02;9.35;;;3.30;66.40;;;;;;5053260;28;20072;-65
2022/03/14 02:10:08;;;;;;;17.55;9.77;;;3.30;66.40;;;;;;5062493;28;20494;-65
2022/03/14 02:12:36;;;;;;;15.60;9.45;;;3.20;66.40;;;;;;5055569;28;20428;-65
2022/03/14 02:15:05;;;;;;;15.07;9.45;;;3.20;66.70;;;;;;5050367;28;20053;-65
2022/03/14 02:17:32;;;;;;;16.92;9.75;;;3.10;66.70;;;;;;5048967;28;20526;-66
2022/03/14 02:19:59;;;;;;;18.25;9.45;;;3.10;67.00;;;;;;5058888;28;20044;-65
2022/03/14 02:22:27;;;;;;;17.30;10.05;;;3.10;67.40;;;;;;5051304;28;20155;-65
2022/03/14 02:24:55;;;;;;;17.45;9.40;;;3.10;67.40;;;;;;5050167;28;20052;-65
2022/03/14 02:27:22;;;;;;;17.40;9.65;;;3.10;67.60;;;;;;5052981;28;20049;-65
2022/03/14 02:29:50;;;;;;;17.35;10.35;;;3.20;67.20;;;;;;5033449;28;20082;-65
2022/03/14 02:32:18;;;;;;;18.00;9.57;;;3.20;67.20;;;;;;5054859;28;20419;-65
2022/03/14 02:34:46;;;;;;;16.50;9.77;;;3.20;67.50;;;;;;5061957;28;20053;-65
2022/03/14 02:37:13;;;;;;;17.27;9.57;;;3.20;67.30;;;;;;5053711;28;20139;-65
2022/03/14 02:39:41;;;;;;;16.58;9.57;;;3.20;67.20;;;;;;5051354;28;20135;-65
2022/03/14 02:42:09;;;;;;;15.52;9.73;;;3.20;67.30;;;;;;5050977;28;20053;-65
2022/03/14 02:44:41;;;;;;;15.43;9.02;;;3.10;67.40;;;;;;5041750;28;20049;-65
2022/03/14 02:47:11;;;;;;;15.98;8.57;;;3.10;67.60;;;;;;5051057;28;20033;-65
2022/03/14 02:49:38;;;;;;;17.30;9.50;;;3.10;67.40;;;;;;5063328;28;20044;-65
2022/03/14 02:52:06;;;;;;;15.95;9.52;;;3.10;67.30;;;;;;5067702;28;20047;-66
2022/03/14 02:54:34;;;;;;;14.18;8.77;;;3.10;67.20;;;;;;5061429;28;20079;-66
2022/03/14 02:57:02;;;;;;;19.70;8.85;;;3.10;67.40;;;;;;5051177;28;20055;-66
2022/03/14 02:59:30;;;;;;;17.13;10.00;;;3.10;67.50;;;;;;5046495;28;20064;-65
2022/03/14 03:01:57;;;;;;;17.33;9.43;;;3.10;67.50;;;;;;5036685;28;20076;-65
2022/03/14 03:04:25;;;;;;;18.55;9.70;;;3.00;67.60;;;;;;5050369;28;20105;-65
2022/03/14 03:06:54;;;;;;;20.77;9.93;;;3.00;67.80;;;;;;5055395;28;20415;-65
2022/03/14 03:09:22;;;;;;;18.63;9.77;;;3.00;68.00;;;;;;5054936;28;20047;-65
2022/03/14 03:11:49;;;;;;;19.08;9.38;;;3.00;67.80;;;;;;5055050;28;20049;-65
2022/03/14 03:14:16;;;;;;;17.00;8.80;;;3.00;67.80;;;;;;5052524;28;20099;-65
2022/03/14 03:16:43;;;;;;;16.98;9.50;;;3.00;67.90;;;;;;5054924;28;20469;-64
2022/03/14 03:19:12;;;;;;;17.98;9.60;;;3.00;68.20;;;;;;5050848;28;20577;-64
2022/03/14 03:21:39;;;;;;;15.40;8.85;;;3.10;68.20;;;;;;5050501;28;20504;-65
2022/03/14 03:24:08;;;;;;;16.50;10.02;;;3.10;68.30;;;;;;5043176;28;20136;-65
2022/03/14 03:26:39;;;;;;;15.48;9.25;;;3.10;68.10;;;;;;5052005;28;20492;-65
2022/03/14 03:29:07;;;;;;;16.00;9.85;;;3.20;68.00;;;;;;5050393;28;20468;-65
2022/03/14 03:31:34;;;;;;;16.42;9.77;;;3.20;67.90;;;;;;5050661;28;20060;-65
2022/03/14 03:34:04;;;;;;;17.20;9.38;;;3.20;68.20;;;;;;5053902;28;20045;-65
2022/03/14 03:36:32;;;;;;;18.05;9.63;;;3.30;68.10;;;;;;5063786;28;20051;-65
2022/03/14 03:38:59;;;;;;;16.63;9.13;;;3.30;68.00;;;;;;5066685;28;20404;-66
2022/03/14 03:41:26;;;;;;;16.10;9.02;;;3.30;68.10;;;;;;5067845;28;20044;-65
2022/03/14 03:43:57;;;;;;;16.52;10.02;;;3.40;68.00;;;;;;5058008;28;20121;-65
2022/03/14 03:46:25;;;;;;;14.63;9.02;;;3.40;67.90;;;;;;5065596;28;20047;-65
2022/03/14 03:48:52;;;;;;;17.48;10.15;;;3.50;67.80;;;;;;5052107;28;20120;-65
2022/03/14 03:51:20;;;;;;;18.70;10.00;;;3.50;67.60;;;;;;5057224;28;20051;-65
2022/03/14 03:53:47;;;;;;;20.83;11.02;;;3.60;67.60;;;;;;5057120;28;20144;-66
2022/03/14 03:56:14;;;;;;;18.05;10.35;;;3.60;67.60;;;;;;5061748;28;20175;-65
2022/03/14 03:58:42;;;;;;;16.83;8.80;;;3.70;67.90;;;;;;5067241;28;20037;-65
2022/03/14 04:01:10;;;;;;;16.48;10.00;;;3.70;67.70;;;;;;5066708;28;20052;-65
2022/03/14 04:03:37;;;;;;;17.60;10.02;;;3.80;67.70;;;;;;5040791;28;20142;-66
2022/03/14 04:06:05;;;;;;;18.05;10.57;;;3.90;67.70;;;;;;5042308;28;20049;-65
2022/03/14 04:08:33;;;;;;;16.20;10.30;;;4.00;67.70;;;;;;5048741;28;20136;-65
2022/03/14 04:11:06;;;;;;;15.20;10.15;;;4.00;67.30;;;;;;5064013;28;20083;-66
2022/03/14 04:13:34;;;;;;;18.67;10.13;;;4.10;66.90;;;;;;5065442;28;20572;-66
2022/03/14 04:16:02;;;;;;;18.85;10.63;;;4.10;66.50;;;;;;5046878;28;20045;-65
2022/03/14 04:18:29;;;;;;;18.50;9.98;;;4.10;66.40;;;;;;5047642;28;20518;-65
2022/03/14 04:20:57;;;;;;;16.13;10.07;;;4.10;66.60;;;;;;5052636;28;20479;-65
2022/03/14 04:23:24;;;;;;;19.77;10.32;;;4.10;66.50;;;;;;5050038;28;20488;-65
2022/03/14 04:25:55;;;;;;;15.30;9.55;;;4.10;66.70;;;;;;5056427;28;20040;-65
2022/03/14 04:28:22;;;;;;;18.90;10.27;;;4.10;66.90;;;;;;5062331;28;20412;-65
2022/03/14 04:30:49;;;;;;;21.08;11.38;;;4.10;67.20;;;;;;5051940;28;20053;-65
2022/03/14 04:33:17;;;;;;;22.73;12.70;;;4.10;69.00;;;;;;5051020;28;20107;-65
2022/03/14 04:35:44;;;;;;;24.25;13.43;;;4.00;70.70;;;;;;5054256;28;20059;-65
2022/03/14 04:38:11;;;;;;;25.30;14.38;;;4.00;72.30;;;;;;5064365;28;20033;-65
2022/03/14 04:40:39;;;;;;;27.33;14.10;;;4.00;73.50;;;;;;5062213;28;20071;-65
2022/03/14 04:43:09;;;;;;;28.35;14.45;;;4.00;73.60;;;;;;5063011;28;20041;-65
2022/03/14 04:45:37;;;;;;;23.95;14.07;;;4.00;74.30;;;;;;5064126;28;20041;-65
2022/03/14 04:48:10;;;;;;;25.27;15.15;;;4.00;74.40;;;;;;5036668;28;20547;-65
2022/03/14 04:50:37;;;;;;;25.00;14.07;;;4.10;74.90;;;;;;5060576;28;20048;-65
2022/03/14 04:53:06;;;;;;;25.40;14.65;;;4.10;75.20;;;;;;5055412;28;20049;-65
2022/03/14 04:55:37;;;;;;;30.00;15.30;;;4.10;75.60;;;;;;5052051;28;20496;-65
2022/03/14 04:58:05;;;;;;;26.25;14.00;;;4.00;75.70;;;;;;5065034;28;20040;-65
2022/03/14 05:00:34;;;;;;;29.40;15.45;;;4.00;75.00;;;;;;5052064;28;20043;-65
2022/03/14 05:03:06;;;;;;;33.33;14.75;;;4.00;75.80;;;;;;5050799;28;20041;-65
2022/03/14 05:05:36;;;;;;;;;;;3.90;75.30;;;;;;5032524;28;20041;-65
2022/03/14 05:08:04;;;;;;;27.35;14.93;;;3.90;76.00;;;;;;5043029;28;19960;-65
2022/03/14 05:10:32;;;;;;;25.55;14.50;;;3.90;75.80;;;;;;5051021;28;20398;-64
2022/03/14 05:13:03;;;;;;;23.88;13.13;;;3.80;74.80;;;;;;5050241;28;20068;-65
2022/03/14 05:15:32;;;;;;;24.75;13.57;;;3.90;74.30;;;;;;5038397;28;20044;-66
2022/03/14 05:18:01;;;;;;;23.10;13.15;;;3.90;73.70;;;;;;5051095;28;20496;-65
2022/03/14 05:20:29;;;;;;;21.48;12.63;;;4.00;73.00;;;;;;5047841;28;20509;-66
2022/03/14 05:22:57;;;;;;;22.40;11.93;;;3.90;72.50;;;;;;5055656;28;20044;-64
2022/03/14 05:25:25;;;;;;;21.17;11.60;;;3.90;72.50;;;;;;5069581;28;20492;-65
2022/03/14 05:27:53;;;;;;;19.35;11.70;;;3.90;72.40;;;;;;5049319;28;20048;-65
2022/03/14 05:30:21;;;;;;;24.30;12.38;;;3.90;72.70;;;;;;5065302;28;20777;-66
2022/03/14 05:32:49;;;;;;;23.83;13.23;;;3.90;72.80;;;;;;5029147;28;20057;-67
2022/03/14 05:35:17;;;;;;;21.55;12.15;;;4.00;72.80;;;;;;5043096;28;20408;-65
2022/03/14 05:37:46;;;;;;;21.98;11.13;;;4.10;73.10;;;;;;5057430;28;20120;-65
2022/03/14 05:40:17;;;;;;;21.20;10.95;;;4.20;73.50;;;;;;5055380;28;20048;-65
2022/03/14 05:42:48;;;;;;;21.00;12.30;;;4.40;74.60;;;;;;5048905;28;20041;-64
2022/03/14 05:45:17;;;;;;;18.30;11.27;;;4.50;76.20;;;;;;5052004;28;20045;-66
2022/03/14 05:47:46;;;;;;;18.15;10.95;;;4.60;76.20;;;;;;5051838;28;20432;-64
2022/03/14 05:50:14;;;;;;;19.60;11.27;;;4.60;76.30;;;;;;5061585;28;20127;-65
2022/03/14 05:52:41;;;;;;;18.33;11.15;;;4.60;76.70;;;;;;5034378;28;20582;-66
2022/03/14 05:55:09;;;;;;;19.98;10.38;;;4.50;77.50;;;;;;5052553;28;20045;-66
2022/03/14 05:57:36;;;;;;;18.88;11.05;;;4.50;77.30;;;;;;5062339;28;20055;-66
2022/03/14 06:00:06;;;;;;;25.67;12.82;;;4.50;77.60;;;;;;5038681;28;20555;-66
2022/03/14 06:02:46;;;;;;;23.48;11.38;;;4.50;77.60;;;;;;5052628;28;20033;-67
2022/03/14 06:05:17;;;;;;;24.52;11.52;;;4.40;78.30;;;;;;5049494;28;20507;-66
2022/03/14 06:07:44;;;;;;;26.27;13.43;;;4.40;78.50;;;;;;5048568;28;20120;-66
2022/03/14 06:10:13;;;;;;;25.45;13.88;;;4.40;79.00;;;;;;5047725;28;20472;-65
2022/03/14 06:12:42;;;;;;;24.38;14.40;;;4.50;79.40;;;;;;5049849;28;20493;-65
2022/03/14 06:15:12;;;;;;;23.95;13.57;;;4.50;79.80;;;;;;5049492;28;20147;-63
2022/03/14 06:17:41;;;;;;;24.02;13.13;;;4.60;80.20;;;;;;5051264;28;20048;-65
2022/03/14 06:20:13;;;;;;;24.05;13.95;;;4.60;80.20;;;;;;5051534;28;20072;-65
2022/03/14 06:22:42;;;;;;;24.40;13.75;;;4.70;80.20;;;;;;5051090;28;20496;-67
2022/03/14 06:25:09;;;;;;;27.42;12.70;;;4.80;80.70;;;;;;5038784;28;20060;-66
2022/03/14 06:27:37;;;;;;;20.50;12.38;;;4.90;80.50;;;;;;5045425;28;20033;-66
2022/03/14 06:30:06;;;;;;;22.33;13.55;;;4.90;80.40;;;;;;5042002;28;20055;-65
2022/03/14 06:32:38;;;;;;;23.35;13.38;;;5.00;80.70;;;;;;5034762;28;20055;-66
2022/03/14 06:35:10;;;;;;;24.13;13.40;;;5.10;81.00;;;;;;5049366;28;20059;-65
2022/03/14 06:37:38;;;;;;;20.23;12.40;;;5.20;80.90;;;;;;5053161;28;20093;-67
2022/03/14 06:40:07;;;;;;;21.90;12.75;;;5.30;80.80;;;;;;5072428;28;20452;-66
2022/03/14 06:42:37;;;;;;;23.95;13.70;;;5.30;81.20;;;;;;5050068;28;20037;-67
2022/03/14 06:45:05;;;;;;;31.25;14.35;;;5.40;82.10;;;;;;5045126;28;20146;-67
2022/03/14 06:47:34;;;;;;;20.77;12.43;;;5.50;84.30;;;;;;5058411;28;20068;-66
2022/03/14 06:50:02;;;;;;;22.40;13.45;;;5.60;86.20;;;;;;5054390;28;20511;-67
2022/03/14 06:52:29;;;;;;;20.63;12.75;;;5.70;89.20;;;;;;5054391;28;20120;-66
2022/03/14 06:54:57;;;;;;;22.63;13.10;;;5.70;88.90;;;;;;5055597;28;20068;-66
2022/03/14 06:57:24;;;;;;;21.50;12.57;;;5.70;90.90;;;;;;5052553;28;20049;-65
2022/03/14 06:59:52;;;;;;;20.75;13.02;;;5.70;91.80;;;;;;5062281;28;20036;-66
2022/03/14 07:02:19;;;;;;;22.40;12.77;;;5.70;92.50;;;;;;5035738;28;20076;-66
2022/03/14 07:04:46;;;;;;;24.33;13.27;;;5.70;93.00;;;;;;5037648;28;20055;-66
2022/03/14 07:07:14;;;;;;;24.02;11.90;;;5.80;94.60;;;;;;5056507;28;20044;-66
2022/03/14 07:09:41;;;;;;;20.45;13.05;;;5.80;97.40;;;;;;5056986;28;20045;-66
2022/03/14 07:12:12;;;;;;;22.55;14.15;;;5.70;99.80;;;;;;5044032;28;20087;-65
2022/03/14 07:14:40;;;;;;;24.77;13.33;;;5.70;99.90;;;;;;5051291;28;20071;-66
2022/03/14 07:17:07;;;;;;;21.88;13.05;;;5.80;99.90;;;;;;5053114;28;20076;-66
2022/03/14 07:19:35;;;;;;;22.35;12.98;;;5.80;99.90;;;;;;5047532;28;20045;-66
2022/03/14 07:22:03;;;;;;;20.00;12.27;;;5.80;99.90;;;;;;5049543;28;20037;-67
2022/03/14 07:24:32;;;;;;;23.27;13.35;;;5.80;99.90;;;;;;5054694;28;20091;-66
2022/03/14 07:27:00;;;;;;;22.60;13.20;;;5.80;99.90;;;;;;5052624;28;20099;-67
2022/03/14 07:29:27;;;;;;;22.60;13.90;;;5.80;99.90;;;;;;5041707;28;20049;-67
2022/03/14 07:31:55;;;;;;;24.25;14.02;;;5.90;99.90;;;;;;5054238;28;20048;-67
2022/03/14 07:34:22;;;;;;;21.10;12.48;;;5.90;99.90;;;;;;5053960;28;20060;-66
2022/03/14 07:36:49;;;;;;;20.83;12.20;;;5.90;99.90;;;;;;5053507;28;20049;-67
2022/03/14 07:39:16;;;;;;;23.40;12.90;;;6.00;99.90;;;;;;5039849;28;20029;-67
2022/03/14 07:41:45;;;;;;;24.63;13.90;;;6.10;99.90;;;;;;5054309;28;20045;-68
2022/03/14 07:44:12;;;;;;;24.40;13.40;;;6.10;99.90;;;;;;5052433;28;20468;-67
2022/03/14 07:46:39;;;;;;;21.23;13.13;;;6.20;99.90;;;;;;5053378;28;20472;-67
2022/03/14 07:49:08;;;;;;;25.08;14.05;;;6.40;99.90;;;;;;5055908;28;20040;-67
2022/03/14 07:51:35;;;;;;;24.02;12.88;;;6.40;99.90;;;;;;5051372;28;20060;-66
2022/03/14 07:54:02;;;;;;;25.73;13.52;;;6.50;99.90;;;;;;5052525;28;20522;-66
2022/03/14 07:56:30;;;;;;;23.20;13.05;;;6.60;99.90;;;;;;5044717;28;20424;-67
2022/03/14 07:58:57;;;;;;;23.35;13.07;;;6.70;99.90;;;;;;5052503;28;20045;-67
2022/03/14 08:01:24;;;;;;;20.55;12.05;;;6.80;99.90;;;;;;5050519;28;20523;-67
2022/03/14 08:03:52;;;;;;;21.83;13.00;;;7.00;99.90;;;;;;5052799;28;20048;-66
2022/03/14 08:06:22;;;;;;;22.85;12.63;;;7.10;99.90;;;;;;5052396;28;20063;-66
2022/03/14 08:08:53;;;;;;;24.80;13.13;;;7.20;99.90;;;;;;5052658;28;20079;-66
2022/03/14 08:11:22;;;;;;;19.33;11.18;;;7.30;99.90;;;;;;5053659;28;20083;-66
2022/03/14 08:13:49;;;;;;;22.70;12.85;;;7.40;99.90;;;;;;5039085;28;20048;-67
2022/03/14 08:16:17;;;;;;;21.83;12.50;;;7.40;99.90;;;;;;5054861;28;20440;-68
2022/03/14 08:18:45;;;;;;;22.92;13.35;;;7.40;99.90;;;;;;5052880;28;20049;-67
2022/03/14 08:21:13;;;;;;;22.00;13.32;;;7.30;99.90;;;;;;5051972;28;20037;-67
2022/03/14 08:23:41;;;;;;;23.40;13.20;;;7.40;99.90;;;;;;5053193;28;20156;-67
2022/03/14 08:26:09;;;;;;;19.02;12.15;;;7.40;99.90;;;;;;5053696;28;20040;-67
2022/03/14 08:28:38;;;;;;;25.52;12.48;;;7.40;99.90;;;;;;5053505;28;20131;-66
2022/03/14 08:31:05;;;;;;;20.88;13.05;;;7.60;99.90;;;;;;5051573;28;20041;-66
2022/03/14 08:33:36;;;;;;;24.13;12.82;;;7.90;99.90;;;;;;5060168;28;20526;-65
2022/03/14 08:36:04;;;;;;;25.75;13.32;;;8.20;99.90;;;;;;5064367;28;20083;-67
2022/03/14 08:38:32;;;;;;;29.58;13.13;;;8.30;99.90;;;;;;5059183;28;20829;-67
2022/03/14 08:41:00;;;;;;;23.95;12.95;;;8.40;99.90;;;;;;5065510;28;20072;-66
2022/03/14 08:43:27;;;;;;;23.17;14.10;;;8.50;99.90;;;;;;5033711;28;20397;-67
2022/03/14 08:45:57;;;;;;;24.10;13.90;;;8.60;99.90;;;;;;5039866;28;20045;-67
2022/03/14 08:48:25;;;;;;;23.65;13.35;;;8.70;99.90;;;;;;5056052;28;20053;-68
2022/03/14 08:50:53;;;;;;;22.60;13.85;;;8.80;99.90;;;;;;5055801;28;20152;-65
2022/03/14 08:53:20;;;;;;;29.02;12.93;;;9.00;99.90;;;;;;5043072;28;20049;-65
2022/03/14 08:55:48;;;;;;;23.35;13.23;;;9.20;99.90;;;;;;5045630;28;20041;-66
2022/03/14 08:58:15;;;;;;;19.65;12.25;;;9.40;99.90;;;;;;5052088;28;20537;-66
2022/03/14 09:00:43;;;;;;;19.83;11.68;;;9.40;99.90;;;;;;5049544;28;20068;-66
2022/03/14 09:03:11;;;;;;;22.58;12.13;;;9.40;99.90;;;;;;5046713;28;20049;-66
2022/03/14 09:05:38;;;;;;;18.17;10.52;;;9.30;99.90;;;;;;5052546;28;20492;-67
2022/03/14 09:08:05;;;;;;;19.00;9.68;;;9.30;99.90;;;;;;5048704;28;20388;-67
2022/03/14 09:10:36;;;;;;;17.52;9.88;;;9.40;99.90;;;;;;5047989;28;20045;-66
2022/03/14 09:13:04;;;;;;;13.73;8.25;;;9.10;99.90;;;;;;5045964;28;20064;-67
2022/03/14 09:15:33;;;;;;;16.02;7.50;;;9.00;99.90;;;;;;5048728;28;20061;-66
2022/03/14 09:18:03;;;;;;;12.18;7.82;;;8.90;99.90;;;;;;5051248;28;20040;-66
2022/03/14 09:20:30;;;;;;;12.10;5.97;;;9.00;99.90;;;;;;5048850;28;20045;-66
2022/03/14 09:22:58;;;;;;;11.68;6.90;;;9.10;99.90;;;;;;5051431;28;20045;-67
2022/03/14 09:25:25;;;;;;;13.88;6.55;;;9.30;99.90;;;;;;5059773;28;20053;-67
2022/03/14 09:27:53;;;;;;;10.40;6.03;;;9.50;99.90;;;;;;5042835;28;20495;-67
2022/03/14 09:30:21;;;;;;;11.32;5.55;;;9.50;99.90;;;;;;5049619;28;20393;-66
2022/03/14 09:32:48;;;;;;;10.38;5.45;;;9.40;99.90;;;;;;5046820;28;20045;-67
2022/03/14 09:35:16;;;;;;;12.50;5.70;;;9.30;99.90;;;;;;5044095;28;20049;-67
2022/03/14 09:37:45;;;;;;;8.82;5.22;;;9.20;99.90;;;;;;5051689;28;20049;-67
2022/03/14 09:40:18;;;;;;;10.38;4.80;;;9.30;99.90;;;;;;5050733;28;20033;-66
2022/03/14 09:42:51;;;;;;;9.57;4.15;;;9.30;99.90;;;;;;5054883;28;20056;-67
2022/03/14 09:45:19;;;;;;;9.18;4.43;;;9.30;99.90;;;;;;5054336;28;20033;-65
2022/03/14 09:47:50;;;;;;;11.52;4.85;;;9.40;99.90;;;;;;5044168;28;20059;-65
2022/03/14 09:50:32;;;;;;;8.73;4.22;;;9.60;99.90;;;;;;5054911;28;20060;-67
2022/03/14 09:53:04;;;;;;;8.27;4.68;;;9.80;99.90;;;;;;5058995;28;20232;-65
2022/03/14 09:55:34;;;;;;;10.93;3.33;;;10.20;99.90;;;;;;5046526;28;20055;-66
2022/03/14 09:58:02;;;;;;;8.50;2.60;;;10.50;99.90;;;;;;5059723;28;20064;-66
2022/03/14 10:00:31;;;;;;;5.68;3.20;;;10.70;99.90;;;;;;5035156;28;20127;-66
2022/03/14 10:02:58;;;;;;;5.88;2.65;;;10.80;99.90;;;;;;5050450;28;20051;-66
2022/03/14 10:05:26;;;;;;;8.85;2.80;;;10.50;99.90;;;;;;5018551;28;20132;-67
2022/03/14 10:07:53;;;;;;;11.20;2.90;;;10.50;99.90;;;;;;5049110;28;20352;-65
2022/03/14 10:10:22;;;;;;;7.60;3.05;;;10.30;99.90;;;;;;5049245;28;20077;-66
2022/03/14 10:12:53;;;;;;;7.43;2.28;;;10.20;99.90;;;;;;5042287;28;20041;-65
2022/03/14 10:15:22;;;;;;;9.73;3.05;;;10.10;99.90;;;;;;5051013;28;20095;-66
2022/03/14 10:17:51;;;;;;;8.25;2.88;;;10.10;99.90;;;;;;5040388;28;20118;-66
2022/03/14 10:20:19;;;;;;;11.20;3.20;;;10.10;99.90;;;;;;5040042;28;20064;-66
2022/03/14 10:22:48;;;;;;;8.50;2.67;;;10.10;99.90;;;;;;5050926;28;20121;-67
2022/03/14 10:25:18;;;;;;;8.25;3.10;;;10.00;99.90;;;;;;5054181;28;20148;-67
2022/03/14 10:27:49;;;;;;;9.10;2.40;;;10.10;99.90;;;;;;5062931;28;20083;-66
2022/03/14 10:30:28;;;;;;;10.40;3.03;;;10.20;99.90;;;;;;5050890;28;20081;-66
2022/03/14 10:33:12;;;;;;;12.95;3.17;;;10.30;99.90;;;;;;5050833;28;20049;-66
2022/03/14 10:35:44;;;;;;;8.48;2.17;;;10.30;99.90;;;;;;5064858;28;20079;-69
2022/03/14 10:38:13;;;;;;;6.72;2.47;;;10.20;99.90;;;;;;5053496;28;20098;-67
2022/03/14 10:40:45;;;;;;;9.02;2.72;;;10.00;99.90;;;;;;5054599;28;20487;-69
2022/03/14 10:43:25;;;;;;;8.80;3.13;;;9.90;99.90;;;;;;5050106;28;20165;-69
2022/03/14 10:45:54;;;;;;;8.85;2.60;;;9.80;99.90;;;;;;5050404;28;20047;-68
2022/03/14 10:48:39;;;;;;;9.77;2.70;;;9.90;99.90;;;;;;5037148;28;20453;-67
2022/03/14 10:51:09;;;;;;;12.95;3.22;;;10.00;99.90;;;;;;5044352;28;20140;-65
2022/03/14 10:53:45;;;;;;;10.43;2.85;;;10.00;99.90;;;;;;5049368;28;20041;-66
2022/03/14 10:56:13;;;;;;;11.25;3.00;;;9.90;99.90;;;;;;5050942;28;20051;-68
2022/03/14 10:58:41;;;;;;;9.52;2.88;;;9.70;99.90;;;;;;5063740;28;20052;-67
2022/03/14 11:01:12;;;;;;;8.07;3.00;;;9.70;99.90;;;;;;5060140;28;20049;-67
2022/03/14 11:03:42;;;;;;;8.10;3.13;;;9.70;99.90;;;;;;5049585;28;20045;-67
2022/03/14 11:06:16;;;;;;;6.95;2.65;;;9.80;99.90;;;;;;5048119;28;20037;-66
2022/03/14 11:08:48;;;;;;;10.73;3.40;;;10.10;99.90;;;;;;5052345;28;20498;-65
2022/03/14 11:11:19;;;;;;;13.95;3.40;;;10.30;99.90;;;;;;5035114;28;20424;-67
2022/03/14 11:13:55;;;;;;;11.13;3.33;;;10.30;99.90;;;;;;5046900;28;20059;-67
2022/03/14 11:16:25;;;;;;;11.30;3.67;;;10.30;99.90;;;;;;5030733;28;20564;-67
2022/03/14 11:18:53;;;;;;;11.73;3.20;;;10.30;99.90;;;;;;5034362;28;20057;-69
2022/03/14 11:21:24;;;;;;;9.23;3.20;;;10.20;99.90;;;;;;5041147;28;20132;-67
2022/03/14 11:23:55;;;;;;;6.97;3.40;;;10.20;99.90;;;;;;5048843;28;20455;-68
2022/03/14 11:26:24;;;;;;;7.90;3.10;;;10.30;99.90;;;;;;5054813;28;20037;-66
2022/03/14 11:28:55;;;;;;;13.52;3.00;;;10.50;99.90;;;;;;5054918;28;20057;-67
2022/03/14 11:31:23;;;;;;;4.80;2.40;;;10.40;99.90;;;;;;5046941;28;20403;-66
2022/03/14 11:33:50;;;;;;;9.50;2.78;;;10.40;99.90;;;;;;5046676;28;20066;-68
2022/03/14 11:36:20;;;;;;;9.13;3.00;;;10.50;99.90;;;;;;5051390;28;20048;-66
2022/03/14 11:38:47;;;;;;;9.68;3.17;;;10.50;99.90;;;;;;5047263;28;20055;-67
2022/03/14 11:41:17;;;;;;;7.53;2.72;;;10.90;99.90;;;;;;5050351;28;20075;-69
2022/03/14 11:43:45;;;;;;;8.93;2.97;;;11.20;99.90;;;;;;5045390;28;20055;-68
2022/03/14 11:46:35;;;;;;;9.20;2.45;;;11.50;99.90;;;;;;5048344;28;20508;-68
2022/03/14 11:49:14;;;;;;;7.80;2.33;;;11.70;99.90;;;;;;5052002;28;20449;-68
2022/03/14 11:51:41;;;;;;;9.45;2.42;;;11.90;99.90;;;;;;5055219;28;20072;-68
2022/03/14 11:54:11;;;;;;;8.60;2.45;;;12.30;99.90;;;;;;5055107;28;20419;-66
2022/03/14 11:56:59;;;;;;;9.18;2.00;;;12.90;99.90;;;;;;5051584;28;20049;-67
2022/03/14 11:59:29;;;;;;;5.75;1.80;;;12.80;99.90;;;;;;5043666;28;20072;-68
2022/03/14 12:01:58;;;;;;;8.48;1.92;;;12.50;99.90;;;;;;5051504;28;20507;-67
2022/03/14 12:04:37;;;;;;;6.40;2.30;;;13.00;99.90;;;;;;5056889;28;20032;-66
2022/03/14 12:07:09;;;;;;;4.57;1.80;;;13.30;99.90;;;;;;5052405;28;20037;-66
2022/03/14 12:09:38;;;;;;;5.70;1.73;;;13.60;99.90;;;;;;5051560;28;20072;-66
2022/03/14 12:12:05;;;;;;;4.30;1.83;;;13.90;99.90;;;;;;5052126;28;20045;-67
2022/03/14 12:14:39;;;;;;;4.18;1.60;;;13.90;99.90;;;;;;5051585;28;20040;-67
2022/03/14 12:17:12;;;;;;;3.28;1.48;;;14.00;99.90;;;;;;5054170;28;20056;-66
2022/03/14 12:20:10;;;;;;;3.10;1.35;;;14.00;99.90;;;;;;5059145;28;20045;-66
2022/03/14 12:22:40;;;;;;;5.93;1.35;;;14.50;99.90;;;;;;5042043;28;20044;-65
2022/03/14 12:25:10;;;;;;;4.93;1.70;;;14.70;99.90;;;;;;5061397;28;20045;-66
2022/03/14 12:27:39;;;;;;;6.50;1.52;;;15.10;99.90;;;;;;5052149;28;20414;-68
2022/03/14 12:30:15;;;;;;;9.00;1.73;;;15.20;99.90;;;;;;5053999;28;20045;-68
2022/03/14 12:32:45;;;;;;;7.38;1.60;;;15.60;99.90;;;;;;5059650;28;20075;-65
2022/03/14 12:35:22;;;;;;;8.00;1.83;;;15.70;99.90;;;;;;5050279;28;20154;-67
2022/03/14 12:37:53;;;;;;;5.90;1.50;;;15.90;99.90;;;;;;5047709;28;20041;-67
2022/03/14 12:40:20;;;;;;;8.15;1.70;;;15.10;99.90;;;;;;5051443;28;20041;-67
2022/03/14 12:42:53;;;;;;;6.63;2.00;;;14.60;99.90;;;;;;5053440;28;20053;-65
2022/03/14 12:45:31;;;;;;;6.88;1.95;;;14.20;99.90;;;;;;5050559;28;20048;-66
2022/03/14 12:48:06;;;;;;;9.13;1.98;;;14.50;99.90;;;;;;5050441;28;20100;-68
2022/03/14 12:50:55;;;;;;;7.72;1.85;;;14.30;99.90;;;;;;5051220;28;20048;-69
2022/03/14 12:53:29;;;;;;;6.55;1.77;;;14.10;99.90;;;;;;5043737;28;20530;-68